Time;durP1;ratioP1;P1;durP2;ratioP2;P2;SDS_P1;SDS_P2;PMS_P1;PMS_P2;Temp;Humidity;BMP_temperature;BMP_pressure;BME280_temperature;BME280_humidity;BME280_pressure;Samples;Min_cycle;Max_cycle;Signal;HPM_P1;HPM_P2
2022/02/11 00:00:19;;;;;;;2.05;1.77;;;19.50;98.50;;;;;;4193290;28;20194;-73
2022/02/11 00:02:22;;;;;;;2.65;2.05;;;19.50;98.50;;;;;;4194784;28;20230;-73
2022/02/11 00:04:51;;;;;;;3.88;2.38;;;19.50;98.50;;;;;;4194935;28;20216;-73
2022/02/11 00:07:00;;;;;;;2.63;1.73;;;19.50;98.40;;;;;;4193665;28;20215;-73
2022/02/11 00:09:02;;;;;;;3.70;1.92;;;19.50;98.40;;;;;;4194593;28;20222;-74
2022/02/11 00:11:05;;;;;;;3.63;1.90;;;19.50;98.70;;;;;;4194131;28;20250;-73
2022/02/11 00:13:07;;;;;;;2.85;2.13;;;19.50;98.30;;;;;;4194750;28;20227;-73
2022/02/11 00:15:36;;;;;;;2.92;1.95;;;19.50;98.30;;;;;;4194641;28;20215;-73
2022/02/11 00:17:39;;;;;;;5.45;1.95;;;19.50;98.20;;;;;;4194684;28;20272;-73
2022/02/11 00:19:41;;;;;;;3.08;1.70;;;19.50;98.20;;;;;;4194514;28;20773;-73
2022/02/11 00:21:44;;;;;;;2.97;1.90;;;19.40;98.20;;;;;;4192961;28;20276;-73
2022/02/11 00:23:47;;;;;;;2.40;1.80;;;19.40;98.20;;;;;;4194600;28;20611;-73
2022/02/11 00:25:54;;;;;;;3.13;1.85;;;19.40;98.20;;;;;;4194340;28;20243;-73
2022/02/11 00:30:59;;;;;;;2.83;1.60;;;19.40;98.20;;;;;;4193029;28;20191;-73
2022/02/11 00:33:09;;;;;;;3.20;1.88;;;19.40;98.10;;;;;;4192521;28;20226;-73
2022/02/11 00:35:22;;;;;;;3.63;1.77;;;19.40;98.00;;;;;;4194536;28;20218;-73
2022/02/11 00:37:26;;;;;;;3.40;1.55;;;19.40;98.00;;;;;;4190883;28;20218;-74
2022/02/11 00:40:01;;;;;;;3.28;2.03;;;19.30;97.90;;;;;;4194302;28;20276;-73
2022/02/11 01:03:02;;;;;;;3.88;2.05;;;19.20;97.70;;;;;;4187226;28;20230;-74
2022/02/11 01:05:04;;;;;;;2.80;1.70;;;19.20;97.70;;;;;;4193706;28;20232;-73
2022/02/11 01:07:08;;;;;;;2.92;1.90;;;19.20;97.70;;;;;;4194069;28;20264;-73
2022/02/11 01:09:13;;;;;;;3.15;1.73;;;19.10;97.70;;;;;;4194224;28;20219;-74
2022/02/11 01:11:22;;;;;;;2.67;1.98;;;19.10;97.70;;;;;;4194402;28;20207;-73
2022/02/11 01:13:24;;;;;;;2.38;1.98;;;19.10;97.60;;;;;;4193794;28;20210;-74
2022/02/11 01:15:29;;;;;;;2.63;1.80;;;19.10;97.70;;;;;;4192169;28;20660;-73
2022/02/11 01:17:36;;;;;;;3.00;1.70;;;19.20;97.70;;;;;;4191398;28;20223;-73
2022/02/11 01:19:47;;;;;;;2.35;1.67;;;19.10;97.90;;;;;;4192773;28;20256;-73
2022/02/11 01:21:58;;;;;;;3.33;1.88;;;19.10;97.50;;;;;;4194109;28;20211;-74
2022/02/11 01:24:11;;;;;;;2.35;1.70;;;19.10;97.50;;;;;;4195742;28;20215;-73
2022/02/11 01:26:26;;;;;;;4.32;1.88;;;19.10;97.50;;;;;;4196629;28;20582;-74
2022/02/11 01:31:02;;;;;;;2.83;1.70;;;19.10;97.40;;;;;;4195319;28;20717;-74
2022/02/11 01:35:30;;;;;;;3.05;1.83;;;19.10;97.40;;;;;;4197326;28;20679;-73
2022/02/11 01:37:39;;;;;;;2.95;1.75;;;19.10;97.40;;;;;;4197510;28;20597;-73
2022/02/11 01:40:11;;;;;;;3.78;1.80;;;19.00;97.30;;;;;;4196817;28;20215;-74
2022/02/11 01:45:03;;;;;;;3.03;2.08;;;19.00;97.30;;;;;;4197391;28;20191;-73
2022/02/11 01:47:53;;;;;;;3.05;2.08;;;19.00;97.20;;;;;;4194421;28;20288;-74
2022/02/11 01:50:15;;;;;;;2.67;1.77;;;19.00;97.20;;;;;;4195628;28;20227;-74
2022/02/11 01:52:28;;;;;;;3.35;1.73;;;19.00;97.20;;;;;;4194618;28;20268;-73
2022/02/11 01:54:46;;;;;;;3.38;1.92;;;19.00;97.20;;;;;;4196373;28;20505;-74
2022/02/11 01:56:58;;;;;;;4.57;1.95;;;19.00;97.20;;;;;;4197070;28;20257;-74
2022/02/11 02:02:09;;;;;;;2.92;1.83;;;19.00;97.00;;;;;;4154753;28;20291;-74
2022/02/11 02:11:47;;;;;;;2.95;1.80;;;19.00;96.90;;;;;;4161681;28;20282;-74
2022/02/11 02:14:16;;;;;;;3.63;1.88;;;18.90;96.90;;;;;;4185523;28;20281;-73
2022/02/11 02:24:00;;;;;;;3.63;1.88;;;18.90;96.70;;;;;;4177590;28;20309;-74
2022/02/11 02:26:16;;;;;;;3.80;1.67;;;18.90;96.70;;;;;;4196643;28;20615;-74
2022/02/11 02:29:06;;;;;;;3.88;2.00;;;18.90;96.70;;;;;;4196141;28;20211;-74
2022/02/11 02:33:49;;;;;;;3.45;2.00;;;18.90;96.70;;;;;;4192975;28;20191;-74
2022/02/11 02:50:21;;;;;;;4.28;2.00;;;18.80;96.50;;;;;;4196462;28;20187;-74
2022/02/11 02:57:11;;;;;;;3.13;1.77;;;18.80;96.50;;;;;;4194968;28;20195;-73
2022/02/11 02:59:29;;;;;;;3.65;1.80;;;18.80;96.30;;;;;;4196202;28;20227;-73
2022/02/11 03:01:42;;;;;;;4.35;2.00;;;18.80;96.30;;;;;;4195505;28;20268;-73
2022/02/11 03:16:20;;;;;;;3.97;2.00;;;18.80;96.20;;;;;;4196029;28;20199;-74
2022/02/11 03:48:56;;;;;;;5.03;1.90;;;18.70;96.00;;;;;;4195121;28;20195;-74
2022/02/11 03:56:24;;;;;;;5.07;1.75;;;18.70;96.00;;;;;;4154770;28;20269;-74
2022/02/11 04:55:04;;;;;;;4.13;2.00;;;18.50;95.70;;;;;;4193501;28;20218;-74
2022/02/11 05:01:40;;;;;;;3.70;1.95;;;18.50;95.70;;;;;;4194506;28;20255;-74
2022/02/11 05:03:43;;;;;;;3.60;1.90;;;18.50;95.70;;;;;;4194967;28;20215;-74
2022/02/11 05:05:51;;;;;;;5.30;2.30;;;18.50;95.80;;;;;;4194583;28;20277;-74
2022/02/11 05:07:53;;;;;;;4.80;2.25;;;18.40;95.70;;;;;;4194836;28;20300;-74
2022/02/11 05:09:57;;;;;;;4.65;1.90;;;18.50;95.70;;;;;;4194876;28;20219;-74
2022/02/11 05:11:59;;;;;;;5.75;2.10;;;18.50;95.70;;;;;;4193561;28;20215;-74
2022/02/11 05:14:02;;;;;;;4.20;1.95;;;18.50;95.70;;;;;;4194327;28;20218;-74
2022/02/11 05:16:04;;;;;;;4.43;2.03;;;18.40;95.60;;;;;;4194807;28;20207;-74
2022/02/11 05:18:07;;;;;;;5.78;1.90;;;18.40;95.70;;;;;;4194859;28;20203;-74
2022/02/11 05:20:11;;;;;;;7.57;2.33;;;18.50;95.70;;;;;;4194428;28;20211;-74
2022/02/11 05:22:13;;;;;;;3.45;1.88;;;18.50;95.70;;;;;;4194232;28;20211;-74
2022/02/11 05:24:15;;;;;;;4.55;1.95;;;18.40;96.00;;;;;;4192228;28;20684;-74
2022/02/11 05:26:19;;;;;;;4.78;1.90;;;18.40;95.60;;;;;;4194599;28;20211;-74
2022/02/11 05:28:21;;;;;;;4.72;2.10;;;18.40;95.60;;;;;;4194388;28;20256;-74
2022/02/11 05:30:23;;;;;;;3.70;1.80;;;18.40;95.60;;;;;;4193459;28;20223;-74
2022/02/11 05:32:26;;;;;;;4.07;1.92;;;18.40;95.60;;;;;;4194702;28;20219;-74
2022/02/11 05:34:28;;;;;;;3.22;1.67;;;18.40;95.60;;;;;;4193419;28;20211;-74
2022/02/11 05:36:31;;;;;;;3.95;2.10;;;18.40;95.60;;;;;;4193417;28;20215;-74
2022/02/11 05:38:33;;;;;;;3.13;1.70;;;18.40;95.60;;;;;;4194444;28;20211;-74
2022/02/11 05:40:36;;;;;;;3.63;1.83;;;18.40;95.60;;;;;;4194585;28;20676;-74
2022/02/11 05:42:40;;;;;;;4.03;1.55;;;18.40;95.60;;;;;;4192741;28;20308;-74
2022/02/11 05:44:42;;;;;;;4.63;2.30;;;18.40;95.60;;;;;;4189980;28;20216;-74
2022/02/11 05:46:45;;;;;;;4.65;1.88;;;18.40;95.60;;;;;;4193068;28;20226;-74
2022/02/11 05:48:47;;;;;;;4.53;1.88;;;18.40;95.60;;;;;;4194357;28;20226;-74
2022/02/11 05:50:49;;;;;;;7.95;2.22;;;18.40;95.50;;;;;;4194330;28;20268;-74
2022/02/11 05:52:52;;;;;;;5.55;1.85;;;18.40;95.60;;;;;;4193949;28;20272;-74
2022/02/11 05:54:54;;;;;;;3.55;1.77;;;18.30;95.60;;;;;;4194318;28;20215;-73
2022/02/11 05:56:56;;;;;;;4.95;1.83;;;18.10;96.00;;;;;;4194802;28;20215;-74
2022/02/11 05:59:00;;;;;;;5.53;2.35;;;18.10;96.10;;;;;;4194389;28;20219;-74
2022/02/11 06:01:02;;;;;;;5.63;1.70;;;18.20;95.90;;;;;;4191637;28;20242;-74
2022/02/11 06:03:05;;;;;;;4.30;2.08;;;18.20;95.70;;;;;;4192187;28;20231;-74
2022/02/11 06:05:08;;;;;;;4.90;1.88;;;18.30;95.70;;;;;;4194019;28;20261;-74
2022/02/11 06:07:10;;;;;;;4.25;1.88;;;18.40;95.60;;;;;;4194378;28;20207;-74
2022/02/11 06:09:12;;;;;;;4.65;1.90;;;18.40;95.50;;;;;;4194428;28;20265;-74
2022/02/11 06:11:15;;;;;;;5.13;1.92;;;18.50;95.60;;;;;;4197099;28;20215;-74
2022/02/11 06:13:17;;;;;;;5.30;1.83;;;18.50;95.70;;;;;;4196832;28;20245;-74
2022/02/11 06:15:21;;;;;;;3.97;1.50;;;18.60;95.80;;;;;;4197129;28;20268;-74
2022/02/11 06:17:24;;;;;;;5.65;2.03;;;18.60;95.90;;;;;;4196605;28;20207;-74
2022/02/11 06:19:26;;;;;;;5.45;2.13;;;18.60;96.20;;;;;;4196772;28;20219;-74
2022/02/11 06:21:28;;;;;;;6.18;2.03;;;18.60;96.20;;;;;;4196454;28;20284;-74
2022/02/11 06:23:31;;;;;;;4.38;1.65;;;18.60;96.20;;;;;;4196402;28;20606;-74
2022/02/11 06:25:34;;;;;;;5.70;2.10;;;18.60;96.30;;;;;;4194241;28;20219;-74
2022/02/11 06:27:36;;;;;;;5.07;2.03;;;18.60;96.30;;;;;;4195414;28;20243;-74
2022/02/11 06:29:38;;;;;;;3.85;1.88;;;18.70;96.50;;;;;;4196233;28;20214;-74
2022/02/11 06:31:42;;;;;;;3.33;1.58;;;18.70;96.60;;;;;;4194640;28;20227;-74
2022/02/11 06:33:44;;;;;;;3.95;1.67;;;18.70;96.60;;;;;;4196576;28;20292;-74
2022/02/11 06:35:47;;;;;;;5.43;2.00;;;18.70;96.80;;;;;;4196776;28;20317;-73
2022/02/11 06:37:50;;;;;;;3.03;1.75;;;18.70;96.80;;;;;;4195664;28;20660;-74
2022/02/11 06:39:52;;;;;;;3.08;1.67;;;18.70;96.90;;;;;;4196916;28;20223;-74
2022/02/11 06:41:55;;;;;;;5.07;2.05;;;18.70;96.90;;;;;;4196574;28;20298;-74
2022/02/11 06:43:58;;;;;;;4.22;1.88;;;18.70;96.90;;;;;;4195468;28;20219;-74
2022/02/11 06:46:02;;;;;;;3.55;1.65;;;18.70;96.90;;;;;;4195828;28;20223;-73
2022/02/11 06:48:06;;;;;;;5.15;1.80;;;18.70;96.90;;;;;;4195315;28;20912;-74
2022/02/11 06:50:09;;;;;;;4.88;2.10;;;18.70;96.90;;;;;;4196494;28;20211;-74
2022/02/11 06:52:11;;;;;;;4.00;1.90;;;18.70;97.00;;;;;;4195391;28;20211;-73
2022/02/11 06:54:14;;;;;;;4.65;2.15;;;18.70;97.00;;;;;;4195279;28;20219;-74
2022/02/11 06:56:16;;;;;;;3.22;1.80;;;18.70;97.00;;;;;;4195293;28;20211;-74
2022/02/11 06:58:20;;;;;;;4.22;1.70;;;18.70;97.00;;;;;;4195572;28;20665;-74
2022/02/11 07:00:22;;;;;;;3.63;1.85;;;18.70;97.00;;;;;;4193168;28;20749;-74
2022/02/11 07:02:28;;;;;;;4.53;1.75;;;18.70;97.10;;;;;;4196169;28;20230;-74
2022/02/11 07:04:32;;;;;;;4.05;1.70;;;18.70;97.00;;;;;;4196576;28;20211;-74
2022/02/11 07:06:35;;;;;;;3.92;1.83;;;18.70;97.10;;;;;;4196367;28;20219;-74
2022/02/11 07:08:37;;;;;;;4.50;2.00;;;18.80;97.30;;;;;;4196305;28;20699;-73
2022/02/11 07:10:40;;;;;;;4.22;1.90;;;18.80;97.30;;;;;;4195839;28;20721;-74
2022/02/11 07:12:42;;;;;;;5.57;1.77;;;18.80;97.30;;;;;;4191088;28;20211;-74
2022/02/11 07:14:44;;;;;;;4.15;1.80;;;18.70;97.40;;;;;;4195692;28;20215;-73
2022/02/11 07:16:48;;;;;;;4.25;1.92;;;18.80;97.30;;;;;;4195974;28;20222;-73
2022/02/11 07:18:50;;;;;;;2.88;1.63;;;18.80;97.30;;;;;;4195990;28;20219;-74
2022/02/11 07:20:55;;;;;;;4.43;1.88;;;18.80;97.50;;;;;;4195506;28;20277;-74
2022/02/11 07:22:57;;;;;;;3.55;1.88;;;18.80;97.50;;;;;;4195603;28;20237;-74
2022/02/11 07:24:59;;;;;;;4.50;1.95;;;18.80;97.50;;;;;;4195570;28;20660;-74
2022/02/11 07:27:01;;;;;;;5.00;1.73;;;18.80;97.40;;;;;;4195687;28;20218;-74
2022/02/11 07:29:04;;;;;;;3.90;1.95;;;18.80;97.50;;;;;;4194909;28;20315;-73
2022/02/11 07:31:07;;;;;;;4.72;1.90;;;18.80;97.50;;;;;;4192617;28;20219;-74
2022/02/11 07:33:09;;;;;;;4.10;1.95;;;18.80;97.50;;;;;;4192901;28;20261;-74
2022/02/11 07:35:12;;;;;;;6.75;2.17;;;18.80;97.70;;;;;;4195374;28;20215;-74
2022/02/11 07:37:15;;;;;;;3.70;1.70;;;18.80;97.60;;;;;;4195260;28;20278;-74
2022/02/11 07:39:18;;;;;;;4.25;1.60;;;18.80;97.60;;;;;;4195396;28;20257;-74
2022/02/11 07:41:20;;;;;;;4.20;1.70;;;18.80;97.50;;;;;;4195271;28;20268;-74
2022/02/11 07:43:24;;;;;;;4.28;1.85;;;18.80;97.80;;;;;;4195591;28;20261;-74
2022/02/11 07:45:30;;;;;;;3.88;1.80;;;18.80;97.80;;;;;;4195018;28;20219;-74
2022/02/11 07:47:32;;;;;;;4.03;2.10;;;18.80;97.80;;;;;;4195652;28;20215;-73
2022/02/11 07:49:37;;;;;;;3.80;1.60;;;18.80;97.80;;;;;;4194603;28;20243;-74
2022/02/11 07:51:40;;;;;;;2.50;1.55;;;18.90;97.90;;;;;;4194907;28;20226;-74
2022/02/11 07:53:45;;;;;;;2.45;1.67;;;18.90;98.00;;;;;;4195195;28;20219;-73
2022/02/11 07:55:47;;;;;;;4.18;1.77;;;18.90;97.90;;;;;;4193196;28;20219;-73
2022/02/11 07:57:50;;;;;;;3.75;1.77;;;18.90;97.90;;;;;;4191121;28;20254;-75
2022/02/11 07:59:52;;;;;;;4.30;2.08;;;18.90;97.90;;;;;;4196425;28;20219;-74
2022/02/11 08:01:55;;;;;;;7.00;2.13;;;19.00;98.00;;;;;;4186732;28;20243;-74
2022/02/11 08:03:57;;;;;;;6.47;2.08;;;19.10;97.80;;;;;;4192230;28;20219;-74
2022/02/11 08:05:59;;;;;;;3.30;1.90;;;19.10;98.40;;;;;;4193117;28;20211;-73
2022/02/11 08:08:02;;;;;;;6.40;2.13;;;19.00;97.70;;;;;;4191057;28;20264;-74
2022/02/11 08:10:06;;;;;;;7.35;2.10;;;19.10;97.70;;;;;;4191316;28;20260;-74
2022/02/11 08:12:11;;;;;;;5.30;2.30;;;19.10;97.10;;;;;;4186784;28;20263;-73
2022/02/11 08:14:13;;;;;;;6.05;1.98;;;19.10;97.60;;;;;;4192157;28;20215;-74
2022/02/11 08:16:16;;;;;;;3.65;2.00;;;19.10;97.80;;;;;;4194062;28;20265;-73
2022/02/11 08:18:18;;;;;;;4.40;2.35;;;19.00;97.60;;;;;;4194473;28;20215;-74
2022/02/11 08:20:21;;;;;;;4.95;2.08;;;19.10;97.70;;;;;;4190846;28;20729;-73
2022/02/11 08:22:23;;;;;;;4.35;2.10;;;19.00;97.60;;;;;;4194732;28;20257;-73
2022/02/11 08:24:25;;;;;;;4.13;2.00;;;19.10;97.40;;;;;;4192184;28;20276;-74
2022/02/11 08:26:30;;;;;;;5.85;2.17;;;19.10;97.30;;;;;;4189986;28;20215;-73
2022/02/11 08:28:33;;;;;;;4.28;2.10;;;19.10;97.70;;;;;;4194431;28;20219;-73
2022/02/11 08:30:35;;;;;;;4.50;1.92;;;19.10;97.70;;;;;;4194862;28;20219;-73
2022/02/11 08:32:37;;;;;;;4.03;1.80;;;19.10;98.00;;;;;;4190247;28;20273;-72
2022/02/11 08:34:40;;;;;;;5.38;1.70;;;19.10;98.10;;;;;;4191797;28;20261;-73
2022/02/11 08:36:42;;;;;;;4.45;1.75;;;19.10;97.90;;;;;;4191135;28;20214;-73
2022/02/11 08:38:45;;;;;;;5.30;1.80;;;19.10;98.00;;;;;;4191101;28;20211;-73
2022/02/11 08:40:47;;;;;;;5.15;2.08;;;19.10;98.30;;;;;;4193492;28;20215;-72
2022/02/11 08:42:51;;;;;;;3.72;1.90;;;19.10;98.10;;;;;;4191287;28;20237;-73
2022/02/11 08:44:53;;;;;;;4.57;1.58;;;19.10;98.10;;;;;;4189134;28;20207;-73
2022/02/11 08:46:56;;;;;;;6.53;2.22;;;19.20;98.20;;;;;;4191005;28;20223;-73
2022/02/11 08:48:58;;;;;;;4.47;1.95;;;19.20;98.10;;;;;;4192959;28;20239;-72
2022/02/11 08:51:00;;;;;;;3.65;1.83;;;19.20;98.30;;;;;;4192253;28;20214;-72
2022/02/11 08:53:03;;;;;;;5.53;1.90;;;19.20;98.20;;;;;;4190578;28;20288;-72
2022/02/11 08:55:06;;;;;;;4.65;1.80;;;19.20;98.00;;;;;;4192864;28;20226;-72
2022/02/11 08:57:08;;;;;;;6.05;2.10;;;19.20;98.00;;;;;;4194221;28;20729;-72
2022/02/11 08:59:12;;;;;;;3.97;1.85;;;19.20;98.10;;;;;;4194370;28;20233;-72
2022/02/11 09:01:15;;;;;;;4.30;2.05;;;19.20;98.10;;;;;;4190499;28;20210;-72
2022/02/11 09:03:19;;;;;;;2.53;1.70;;;19.30;98.40;;;;;;4190018;28;20280;-73
2022/02/11 09:05:22;;;;;;;6.57;1.88;;;19.30;98.50;;;;;;4188719;28;20256;-73
2022/02/11 09:07:25;;;;;;;6.10;2.08;;;19.30;98.50;;;;;;4188785;28;20261;-74
2022/02/11 09:09:27;;;;;;;5.40;2.15;;;19.30;98.50;;;;;;4192997;28;20636;-73
2022/02/11 09:11:29;;;;;;;3.70;2.00;;;19.30;98.70;;;;;;4190209;28;20219;-73
2022/02/11 09:13:32;;;;;;;4.13;1.67;;;19.40;98.70;;;;;;4192263;28;20219;-73
2022/02/11 09:15:36;;;;;;;5.75;1.80;;;19.40;98.80;;;;;;4192267;28;20309;-73
2022/02/11 09:17:38;;;;;;;5.00;1.90;;;19.40;98.30;;;;;;4186821;28;20218;-73
2022/02/11 09:19:40;;;;;;;5.75;1.90;;;19.40;98.30;;;;;;4188368;28;20212;-73
2022/02/11 09:21:43;;;;;;;6.10;1.88;;;19.40;98.60;;;;;;4192050;28;20268;-73
2022/02/11 09:23:45;;;;;;;4.63;1.83;;;19.40;98.70;;;;;;4188822;28;20215;-73
2022/02/11 09:25:48;;;;;;;3.85;1.83;;;19.40;98.70;;;;;;4189207;28;20215;-73
2022/02/11 09:27:50;;;;;;;7.90;2.22;;;19.40;98.80;;;;;;4190468;28;20272;-73
2022/02/11 09:29:53;;;;;;;3.63;1.80;;;19.50;99.00;;;;;;4192399;28;20288;-73
2022/02/11 09:31:56;;;;;;;6.13;2.20;;;19.40;98.80;;;;;;4191468;28;20219;-72
2022/02/11 09:34:03;;;;;;;5.43;2.05;;;19.50;98.90;;;;;;4193750;28;20265;-72
2022/02/11 09:36:07;;;;;;;5.15;2.22;;;19.40;99.10;;;;;;4191492;28;20241;-72
2022/02/11 09:38:10;;;;;;;4.53;2.15;;;19.50;99.00;;;;;;4193301;28;20250;-74
2022/02/11 09:40:16;;;;;;;5.03;1.83;;;19.50;99.10;;;;;;4193786;28;20277;-73
2022/02/11 09:42:20;;;;;;;3.45;2.10;;;19.50;99.00;;;;;;4192146;28;20229;-72
2022/02/11 09:44:27;;;;;;;5.15;1.85;;;19.50;99.40;;;;;;4193509;28;20657;-73
2022/02/11 09:46:30;;;;;;;6.50;2.22;;;19.50;99.20;;;;;;4194430;28;20214;-72
2022/02/11 09:48:34;;;;;;;4.68;1.88;;;19.60;99.50;;;;;;4190594;28;20268;-73
2022/02/11 09:50:37;;;;;;;4.47;2.25;;;19.60;99.60;;;;;;4185996;28;20235;-73
2022/02/11 09:52:41;;;;;;;5.32;2.20;;;19.60;99.40;;;;;;4192084;28;20687;-73
2022/02/11 09:54:44;;;;;;;4.28;1.90;;;19.70;99.30;;;;;;4193175;28;20215;-73
2022/02/11 09:56:46;;;;;;;7.93;2.35;;;19.70;99.90;;;;;;4194060;28;20586;-73
2022/02/11 09:58:50;;;;;;;5.97;2.40;;;19.70;99.90;;;;;;4191673;28;20231;-72
2022/02/11 10:00:53;;;;;;;6.68;2.00;;;19.70;99.70;;;;;;4192570;28;20659;-73
2022/02/11 10:02:57;;;;;;;4.40;2.05;;;19.70;99.90;;;;;;4191347;28;20292;-73
2022/02/11 10:05:05;;;;;;;4.13;2.17;;;19.70;99.90;;;;;;4193272;28;20223;-73
2022/02/11 10:07:14;;;;;;;7.75;2.35;;;19.80;99.90;;;;;;4190442;28;20223;-73
2022/02/11 10:09:16;;;;;;;6.93;2.15;;;19.80;99.90;;;;;;4192353;28;20268;-73
2022/02/11 10:11:19;;;;;;;3.08;1.75;;;19.80;99.90;;;;;;4192166;28;20215;-73
2022/02/11 10:13:25;;;;;;;5.32;1.98;;;19.80;99.90;;;;;;4193211;28;20245;-72
2022/02/11 10:15:27;;;;;;;3.58;1.85;;;19.80;99.90;;;;;;4192058;28;20223;-72
2022/02/11 10:17:30;;;;;;;5.57;2.28;;;19.80;99.90;;;;;;4191207;28;20269;-73
2022/02/11 10:19:40;;;;;;;6.88;2.03;;;19.80;99.90;;;;;;4189618;28;20934;-72
2022/02/11 10:21:47;;;;;;;7.07;2.20;;;19.80;99.90;;;;;;4193813;28;20223;-73
2022/02/11 10:23:52;;;;;;;6.78;2.00;;;19.90;99.90;;;;;;4192611;28;20264;-73
2022/02/11 10:26:02;;;;;;;5.15;2.17;;;19.90;99.90;;;;;;4189713;28;20273;-74
2022/02/11 10:28:21;;;;;;;4.63;2.00;;;19.90;99.70;;;;;;4193415;28;20622;-72
2022/02/11 10:30:23;;;;;;;4.45;1.85;;;20.00;99.90;;;;;;4190750;28;20227;-73
2022/02/11 10:32:44;;;;;;;6.22;2.20;;;19.90;99.60;;;;;;4190974;28;20273;-73
2022/02/11 10:34:53;;;;;;;6.22;2.00;;;20.00;99.30;;;;;;4187869;28;20801;-73
2022/02/11 10:36:57;;;;;;;5.15;1.88;;;20.00;99.60;;;;;;4193414;28;20257;-72
2022/02/11 10:39:11;;;;;;;4.90;1.90;;;20.00;99.40;;;;;;4193478;28;20223;-72
2022/02/11 10:41:21;;;;;;;4.97;1.95;;;20.00;99.50;;;;;;4191642;28;20338;-72
2022/02/11 10:43:29;;;;;;;3.80;1.85;;;20.00;99.80;;;;;;4193012;28;20663;-72
2022/02/11 10:45:37;;;;;;;5.35;2.50;;;20.00;99.90;;;;;;4192216;28;20654;-73
2022/02/11 10:47:39;;;;;;;5.03;2.33;;;20.00;99.70;;;;;;4193228;28;20280;-73
2022/02/11 10:49:43;;;;;;;4.95;1.98;;;20.00;99.50;;;;;;4190882;28;20296;-73
2022/02/11 10:51:48;;;;;;;4.60;1.92;;;20.10;98.90;;;;;;4190843;28;20328;-72
2022/02/11 10:53:52;;;;;;;2.97;1.73;;;20.10;99.40;;;;;;4189695;28;20234;-72
2022/02/11 10:55:54;;;;;;;4.93;1.80;;;20.10;99.30;;;;;;4191931;28;20211;-73
2022/02/11 10:57:58;;;;;;;4.53;2.15;;;20.20;99.90;;;;;;4188926;28;20207;-73
2022/02/11 11:00:04;;;;;;;4.50;2.10;;;20.20;99.10;;;;;;4192242;28;20268;-73
2022/02/11 11:02:08;;;;;;;6.22;2.28;;;20.10;98.10;;;;;;4190975;28;20273;-74
2022/02/11 11:04:11;;;;;;;5.18;2.20;;;20.20;98.20;;;;;;4191915;28;20668;-74
2022/02/11 11:06:14;;;;;;;5.53;2.15;;;20.20;99.40;;;;;;4191099;28;20280;-74
2022/02/11 11:08:18;;;;;;;5.22;2.05;;;20.30;99.30;;;;;;4192890;28;20215;-73
2022/02/11 11:10:22;;;;;;;5.00;1.80;;;20.30;98.50;;;;;;4191646;28;20227;-76
2022/02/11 11:12:27;;;;;;;4.97;1.85;;;20.30;98.20;;;;;;4190219;28;20207;-73
2022/02/11 11:14:29;;;;;;;7.60;2.58;;;20.40;98.10;;;;;;4185416;28;20262;-74
2022/02/11 11:16:35;;;;;;;4.55;2.10;;;20.40;99.10;;;;;;4188510;28;20208;-74
2022/02/11 11:18:38;;;;;;;6.32;2.13;;;20.40;98.50;;;;;;4189705;28;20222;-74
2022/02/11 11:20:45;;;;;;;4.35;1.85;;;20.40;99.00;;;;;;4191591;28;20211;-74
2022/02/11 11:22:52;;;;;;;7.00;2.20;;;20.50;98.80;;;;;;4193209;28;20276;-73
2022/02/11 11:24:58;;;;;;;5.53;2.40;;;20.50;98.30;;;;;;4191569;28;20236;-73
2022/02/11 11:27:02;;;;;;;5.10;1.85;;;20.60;98.70;;;;;;4191132;28;20223;-73
2022/02/11 11:29:08;;;;;;;5.75;2.08;;;20.60;99.10;;;;;;4193703;28;20273;-73
2022/02/11 11:31:17;;;;;;;6.90;1.77;;;20.60;98.70;;;;;;4191395;28;20324;-74
2022/02/11 11:33:23;;;;;;;7.32;2.42;;;20.60;98.80;;;;;;4190060;28;20808;-73
2022/02/11 11:35:25;;;;;;;5.72;2.10;;;20.60;98.70;;;;;;4189706;28;20310;-73
2022/02/11 11:37:28;;;;;;;6.47;1.90;;;20.60;98.60;;;;;;4191784;28;20215;-74
2022/02/11 11:39:30;;;;;;;6.63;1.90;;;20.60;98.60;;;;;;4191501;28;20215;-73
2022/02/11 11:41:35;;;;;;;5.95;2.30;;;20.70;98.70;;;;;;4193210;28;20273;-73
2022/02/11 11:43:41;;;;;;;6.45;2.08;;;20.70;99.00;;;;;;4189465;28;20560;-74
2022/02/11 11:45:44;;;;;;;5.03;2.05;;;20.70;98.60;;;;;;4193265;28;20755;-73
2022/02/11 11:47:46;;;;;;;6.13;2.13;;;20.70;98.50;;;;;;4194467;28;20636;-72
2022/02/11 11:49:52;;;;;;;6.65;2.20;;;20.70;98.40;;;;;;4191896;28;20215;-73
2022/02/11 11:52:13;;;;;;;4.57;1.65;;;20.70;98.20;;;;;;4193560;28;20230;-73
2022/02/11 11:54:23;;;;;;;5.15;2.10;;;20.70;97.90;;;;;;4189581;28;20288;-73
2022/02/11 11:56:36;;;;;;;5.85;1.80;;;20.70;98.00;;;;;;4189934;28;20287;-73
2022/02/11 11:58:47;;;;;;;5.05;2.15;;;20.80;97.70;;;;;;4193125;28;20227;-74
2022/02/11 12:01:00;;;;;;;7.63;2.50;;;20.70;98.20;;;;;;4192883;28;20288;-75
2022/02/11 12:03:02;;;;;;;4.93;1.90;;;20.70;98.30;;;;;;4193978;28;20243;-74
2022/02/11 12:05:05;;;;;;;7.47;2.13;;;20.70;98.10;;;;;;4191140;28;20223;-73
2022/02/11 12:07:09;;;;;;;6.50;2.30;;;20.70;98.90;;;;;;4190275;28;20227;-74
2022/02/11 12:09:11;;;;;;;4.70;1.85;;;20.70;98.00;;;;;;4191062;28;20772;-74
2022/02/11 12:11:15;;;;;;;4.25;2.00;;;20.80;98.00;;;;;;4193184;28;20582;-74
2022/02/11 12:13:18;;;;;;;5.70;1.92;;;20.80;98.00;;;;;;4190871;28;20219;-74
2022/02/11 12:15:21;;;;;;;6.30;1.90;;;20.80;97.80;;;;;;4193319;28;20308;-74
2022/02/11 12:17:24;;;;;;;6.85;2.10;;;20.80;97.70;;;;;;4190417;28;20223;-74
2022/02/11 12:19:27;;;;;;;5.07;2.10;;;20.90;97.70;;;;;;4191382;28;20268;-71
2022/02/11 12:21:29;;;;;;;4.30;1.85;;;20.90;97.70;;;;;;4190544;28;20207;-74
2022/02/11 12:28:11;;;;;;;5.60;1.90;;;21.00;96.90;;;;;;4192225;28;20194;-75
2022/02/11 12:30:16;;;;;;;6.47;2.33;;;21.00;97.30;;;;;;4193986;28;20853;-75
2022/02/11 12:32:22;;;;;;;5.05;2.10;;;21.00;97.70;;;;;;4188089;28;20238;-74
2022/02/11 12:34:25;;;;;;;5.95;2.08;;;21.00;97.60;;;;;;4189715;28;20256;-74
2022/02/11 12:36:27;;;;;;;5.70;2.08;;;21.10;97.60;;;;;;4192671;28;20276;-74
2022/02/11 12:38:30;;;;;;;5.97;1.90;;;21.10;97.00;;;;;;4191282;28;20216;-74
2022/02/11 12:40:34;;;;;;;5.53;1.70;;;21.10;97.00;;;;;;4189874;28;20208;-74
2022/02/11 12:42:38;;;;;;;5.55;1.85;;;21.10;97.00;;;;;;4190213;28;20304;-73
2022/02/11 12:44:42;;;;;;;5.90;1.60;;;21.10;97.30;;;;;;4190309;28;20679;-73
2022/02/11 12:46:45;;;;;;;6.38;1.80;;;21.20;97.20;;;;;;4192713;28;20214;-75
2022/02/11 12:48:48;;;;;;;4.88;2.00;;;21.20;97.30;;;;;;4192476;28;20241;-74
2022/02/11 12:50:53;;;;;;;6.45;2.35;;;21.10;97.20;;;;;;4192663;28;20285;-75
2022/02/11 12:52:57;;;;;;;4.45;2.00;;;21.20;97.10;;;;;;4188287;28;20222;-75
2022/02/11 12:55:07;;;;;;;3.08;1.42;;;21.20;96.90;;;;;;4191485;28;20276;-73
2022/02/11 12:57:17;;;;;;;4.88;1.90;;;21.20;97.00;;;;;;4191054;28;20230;-75
2022/02/11 12:59:20;;;;;;;5.80;2.15;;;21.20;96.60;;;;;;4190784;28;20231;-74
2022/02/11 13:01:31;;;;;;;6.35;2.25;;;21.20;96.70;;;;;;4189712;28;20207;-73
2022/02/11 13:03:33;;;;;;;7.93;1.98;;;21.20;97.00;;;;;;4192084;28;20624;-75
2022/02/11 13:05:42;;;;;;;5.93;1.88;;;21.20;96.80;;;;;;4191628;28;20219;-76
2022/02/11 13:07:46;;;;;;;4.80;1.83;;;21.30;96.90;;;;;;4190877;28;20207;-74
2022/02/11 13:09:49;;;;;;;4.32;1.92;;;21.30;96.70;;;;;;4190719;28;20215;-76
2022/02/11 13:11:55;;;;;;;5.00;1.70;;;21.20;96.70;;;;;;4189985;28;20239;-75
2022/02/11 13:14:04;;;;;;;4.82;1.90;;;21.30;96.60;;;;;;4188535;28;20215;-74
2022/02/11 13:16:06;;;;;;;5.55;1.80;;;21.30;96.70;;;;;;4189349;28;20618;-76
2022/02/11 13:18:10;;;;;;;5.35;1.88;;;21.30;96.40;;;;;;4190358;28;20564;-74
2022/02/11 13:20:15;;;;;;;5.32;1.88;;;21.30;96.70;;;;;;4195437;28;20196;-74
2022/02/11 13:22:19;;;;;;;4.88;1.80;;;21.30;96.70;;;;;;4194711;28;20203;-75
2022/02/11 13:24:22;;;;;;;5.38;1.60;;;21.40;96.70;;;;;;4191375;28;20220;-73
2022/02/11 13:26:26;;;;;;;4.57;1.90;;;21.40;96.70;;;;;;4189295;28;20979;-75
2022/02/11 13:28:29;;;;;;;5.22;2.38;;;21.30;96.70;;;;;;4189947;28;20215;-75
2022/02/11 13:30:33;;;;;;;5.95;2.08;;;21.20;95.90;;;;;;4193670;28;20227;-77
2022/02/11 13:32:36;;;;;;;7.35;2.00;;;21.30;95.90;;;;;;4193589;28;20231;-76
2022/02/11 13:35:03;;;;;;;5.45;2.13;;;21.20;96.00;;;;;;4193146;28;20689;-75
2022/02/11 13:37:06;;;;;;;6.03;2.20;;;21.30;96.50;;;;;;4194530;28;21642;-75
2022/02/11 13:39:10;;;;;;;3.70;1.83;;;21.30;97.00;;;;;;4193595;28;20233;-75
2022/02/11 13:41:15;;;;;;;4.43;1.73;;;21.30;97.00;;;;;;4195046;28;20264;-75
2022/02/11 13:43:18;;;;;;;5.07;1.88;;;21.30;97.30;;;;;;4194980;28;20332;-75
2022/02/11 13:45:21;;;;;;;5.00;2.08;;;21.30;96.90;;;;;;4194149;28;20261;-75
2022/02/11 13:47:24;;;;;;;6.75;1.90;;;21.30;96.90;;;;;;4194607;28;20211;-76
2022/02/11 13:49:26;;;;;;;4.72;1.85;;;21.40;96.80;;;;;;4193288;28;20300;-76
2022/02/11 13:51:28;;;;;;;4.43;2.05;;;21.30;96.60;;;;;;4195334;28;20256;-76
2022/02/11 13:53:41;;;;;;;3.22;1.83;;;21.40;97.40;;;;;;4194715;28;20232;-76
2022/02/11 13:55:53;;;;;;;5.85;2.03;;;21.40;97.40;;;;;;4191557;28;20259;-76
2022/02/11 13:57:55;;;;;;;4.18;1.73;;;21.40;97.00;;;;;;4193637;28;20222;-76